PBO weather

Bonfil Airport
San Luis Rio Colorado, Sonora, Mexico

Public forecast

Using degrees Celsius for public forecast. Weather courtesy of forecast.io.

Closest aviation weather report (METAR) to Bonfil Airport

Report is more than 2 hours old.

Closest report is General Rodolfo Sánchez Taboada International Airport, 24.0 nm (44.4 km) NW. Retrieved 2020/02/23 08:48 UTC (4 hours ago):

MMML 230848Z 33007KT 10SM SKC 12/04 A3008 RMK SLP186 52003 917

Closest aviation forecast (TAF) to Bonfil Airport

Forecast is more than 6 hours old.

Closest forecast is General Rodolfo Sánchez Taboada International Airport, 24.0 nm (44.4 km) NW. Retrieved 2020/02/23 06:06 UTC (7 hours ago):

TAF MMML 230358Z 2306/2406 28008KT P6SM BKN040 FM231800 32015KT P6SM BKN040 BKN250 FM240500 30006KT P6SM SCT030